createdAt,value
2022-11-30T00:02:01.350Z,11.40
2022-11-30T00:04:29.354Z,12.77
2022-11-30T00:06:57.483Z,12.77
2022-11-30T00:09:26.787Z,10.67
2022-11-30T00:11:54.728Z,12.73
2022-11-30T00:14:22.651Z,13.10
2022-11-30T00:16:50.634Z,13.13
2022-11-30T00:19:18.595Z,10.10
2022-11-30T00:21:46.757Z,11.87
2022-11-30T00:24:14.755Z,10.17
2022-11-30T00:26:44.187Z,10.03
2022-11-30T00:29:12.887Z,9.30
2022-11-30T00:31:40.819Z,13.63
2022-11-30T00:34:08.884Z,9.47
2022-11-30T00:36:36.815Z,11.23
2022-11-30T00:39:04.944Z,12.90
2022-11-30T00:41:32.880Z,12.50
2022-11-30T00:44:02.234Z,12.37
2022-11-30T00:46:30.253Z,11.50
2022-11-30T00:48:58.331Z,15.97
2022-11-30T00:51:26.774Z,13.30
2022-11-30T00:53:54.768Z,13.30
2022-11-30T00:56:24.823Z,14.03
2022-11-30T00:58:52.975Z,13.70
2022-11-30T01:01:22.409Z,12.83
2022-11-30T01:03:50.410Z,16.53
2022-11-30T01:06:18.420Z,12.60
2022-11-30T01:08:47.997Z,11.90
2022-11-30T01:11:18.069Z,12.93
2022-11-30T01:13:46.098Z,13.30
2022-11-30T01:16:16.736Z,13.50
2022-11-30T01:18:47.105Z,11.13
2022-11-30T01:21:17.584Z,12.27
2022-11-30T01:23:46.133Z,12.47
2022-11-30T01:26:14.739Z,12.03
2022-11-30T01:28:44.021Z,11.37
2022-11-30T01:31:14.472Z,14.03
2022-11-30T01:33:43.130Z,12.83
2022-11-30T01:36:14.697Z,10.80
2022-11-30T01:38:44.279Z,8.70
2022-11-30T01:41:14.414Z,11.50
2022-11-30T01:43:44.849Z,12.00
2022-11-30T01:46:27.419Z,13.93
2022-11-30T01:49:11.156Z,12.57
2022-11-30T01:51:43.366Z,12.13
2022-11-30T01:54:14.346Z,12.60
2022-11-30T01:56:47.765Z,11.53
2022-11-30T01:59:16.712Z,11.90
2022-11-30T02:01:45.364Z,10.97
2022-11-30T02:04:19.317Z,9.83
2022-11-30T02:06:49.314Z,9.60
2022-11-30T02:09:19.091Z,13.03
2022-11-30T02:11:47.476Z,12.50
2022-11-30T02:14:28.326Z,13.77
2022-11-30T02:17:07.985Z,11.27
2022-11-30T02:20:27.120Z,12.90
2022-11-30T02:23:21.117Z,12.70
2022-11-30T02:25:57.965Z,14.30
2022-11-30T02:29:04.479Z,11.10
2022-11-30T02:31:39.212Z,12.50
2022-11-30T02:34:11.241Z,10.60
2022-11-30T02:36:40.608Z,11.33
2022-11-30T02:39:10.695Z,11.07
2022-11-30T02:41:39.075Z,9.93
2022-11-30T02:44:12.173Z,10.93
2022-11-30T02:46:53.082Z,11.27
2022-11-30T02:49:28.518Z,11.13
2022-11-30T02:51:58.189Z,10.10
2022-11-30T02:54:26.396Z,10.03
2022-11-30T02:56:54.395Z,14.10
2022-11-30T02:59:23.800Z,12.60
2022-11-30T03:01:51.835Z,10.00
2022-11-30T03:04:19.996Z,10.23
2022-11-30T03:06:47.978Z,11.07
2022-11-30T03:09:15.987Z,10.27
2022-11-30T03:11:43.978Z,10.70
2022-11-30T03:14:12.129Z,8.63
2022-11-30T03:16:41.439Z,10.43
2022-11-30T03:19:09.554Z,9.43
2022-11-30T03:21:37.497Z,8.43
2022-11-30T03:24:05.912Z,10.40
2022-11-30T03:26:33.902Z,10.97
2022-11-30T03:29:01.847Z,8.47
2022-11-30T03:31:29.849Z,9.23
2022-11-30T03:33:59.217Z,7.10
2022-11-30T03:36:27.179Z,8.00
2022-11-30T03:38:55.177Z,9.27
2022-11-30T03:41:23.157Z,10.50
2022-11-30T03:43:51.183Z,11.43
2022-11-30T03:46:19.146Z,9.27
2022-11-30T03:48:47.260Z,8.10
2022-11-30T03:51:16.735Z,10.70
2022-11-30T03:53:44.721Z,9.63
2022-11-30T03:56:14.239Z,9.07
2022-11-30T03:58:42.700Z,7.80
2022-11-30T04:01:12.396Z,10.23
2022-11-30T04:03:41.029Z,9.10
2022-11-30T04:06:10.298Z,9.10
2022-11-30T04:08:40.413Z,9.33
2022-11-30T04:11:09.556Z,9.60
2022-11-30T04:13:38.948Z,11.60
2022-11-30T04:16:07.817Z,9.20
2022-11-30T04:18:37.060Z,10.33
2022-11-30T04:21:06.641Z,9.63
2022-11-30T04:23:36.549Z,7.93
2022-11-30T04:26:07.214Z,8.57
2022-11-30T04:28:36.345Z,7.53
2022-11-30T04:31:05.183Z,11.07
2022-11-30T04:33:33.229Z,9.00
2022-11-30T04:36:02.712Z,9.40
2022-11-30T04:38:30.988Z,9.97
2022-11-30T04:40:58.995Z,8.33
2022-11-30T04:43:28.370Z,7.90
2022-11-30T04:45:56.312Z,7.80
2022-11-30T04:48:24.374Z,8.23
2022-11-30T04:50:52.410Z,9.50
2022-11-30T04:53:20.373Z,8.33
2022-11-30T04:55:48.316Z,8.00
2022-11-30T04:58:16.287Z,8.00
2022-11-30T05:00:45.603Z,8.93
2022-11-30T05:03:13.558Z,7.47
2022-11-30T05:05:41.547Z,7.60
2022-11-30T05:08:10.811Z,9.33
2022-11-30T05:10:38.838Z,7.87
2022-11-30T05:13:06.792Z,8.03
2022-11-30T05:15:34.712Z,9.03
2022-11-30T05:18:04.166Z,9.27
2022-11-30T05:20:32.154Z,7.50
2022-11-30T05:23:00.156Z,9.87
2022-11-30T05:25:28.123Z,9.07
2022-11-30T05:27:56.052Z,8.30
2022-11-30T05:30:24.052Z,6.73
2022-11-30T05:32:53.665Z,8.87
2022-11-30T05:35:23.001Z,9.63
2022-11-30T05:37:51.021Z,8.40
2022-11-30T05:40:19.202Z,7.50
2022-11-30T05:42:47.164Z,7.90
2022-11-30T05:45:15.200Z,7.60
2022-11-30T05:47:43.199Z,6.30
2022-11-30T05:50:11.474Z,7.77
2022-11-30T05:52:40.759Z,8.90
2022-11-30T05:55:09.204Z,8.10
2022-11-30T05:57:38.047Z,7.30
2022-11-30T06:00:07.093Z,6.20
2022-11-30T06:02:35.307Z,6.97
2022-11-30T06:05:03.398Z,8.40
2022-11-30T06:07:31.479Z,7.03
2022-11-30T06:10:00.865Z,7.00
2022-11-30T06:12:28.789Z,8.37
2022-11-30T06:14:56.807Z,6.57
2022-11-30T06:17:24.766Z,7.40
2022-11-30T06:19:52.748Z,7.53
2022-11-30T06:22:20.696Z,8.70
2022-11-30T06:24:48.848Z,7.40
2022-11-30T06:27:18.451Z,8.00
2022-11-30T06:29:46.454Z,5.87
2022-11-30T06:32:14.452Z,6.83
2022-11-30T06:34:42.382Z,8.33
2022-11-30T06:37:10.392Z,19.27
2022-11-30T06:40:04.720Z,10.57
2022-11-30T06:42:29.469Z,9.53
2022-11-30T06:44:57.472Z,10.20
2022-11-30T06:47:25.621Z,11.47
2022-11-30T06:49:53.642Z,7.57
2022-11-30T06:52:21.907Z,6.77
2022-11-30T06:54:49.950Z,8.60
2022-11-30T06:57:18.153Z,9.30
2022-11-30T06:59:47.540Z,7.77
2022-11-30T07:02:18.266Z,9.90
2022-11-30T07:04:47.336Z,9.77
2022-11-30T07:07:15.510Z,9.90
2022-11-30T07:09:43.911Z,8.87
2022-11-30T07:12:12.048Z,9.90
2022-11-30T07:14:40.095Z,11.50
2022-11-30T07:17:09.418Z,10.60
2022-11-30T07:19:37.399Z,10.80
2022-11-30T07:22:05.356Z,10.50
2022-11-30T07:24:50.782Z,10.30
2022-11-30T07:27:18.901Z,10.30
2022-11-30T07:29:48.865Z,10.20
2022-11-30T07:32:18.241Z,8.43
2022-11-30T07:34:47.117Z,9.03
2022-11-30T07:37:15.487Z,8.73
2022-11-30T07:39:43.451Z,10.73
2022-11-30T07:42:13.183Z,9.13
2022-11-30T07:44:41.464Z,8.30
2022-11-30T07:47:09.461Z,9.07
2022-11-30T07:49:39.803Z,8.93
2022-11-30T07:52:08.339Z,8.90
2022-11-30T07:54:36.312Z,9.57
2022-11-30T07:57:04.290Z,7.43
2022-11-30T07:59:32.362Z,8.77
2022-11-30T08:02:01.498Z,8.23
2022-11-30T08:04:29.584Z,9.53
2022-11-30T08:06:59.094Z,8.40
2022-11-30T08:09:27.126Z,7.97
2022-11-30T08:11:55.120Z,7.97
2022-11-30T08:14:23.147Z,7.23
2022-11-30T08:16:51.799Z,9.33
2022-11-30T08:19:19.836Z,11.20
2022-11-30T08:21:47.859Z,6.57
2022-11-30T08:24:17.388Z,9.33
2022-11-30T08:26:45.720Z,9.17
2022-11-30T08:29:13.727Z,8.83
2022-11-30T08:31:41.767Z,8.27
2022-11-30T08:34:12.883Z,9.00
2022-11-30T08:36:42.103Z,8.57
2022-11-30T08:39:13.569Z,8.63
2022-11-30T08:41:42.950Z,7.30
2022-11-30T08:44:11.107Z,6.13
2022-11-30T08:46:54.510Z,8.70
2022-11-30T08:49:25.021Z,5.90
2022-11-30T08:57:34.959Z,6.53
2022-11-30T09:00:03.184Z,8.00
2022-11-30T09:02:31.255Z,7.33
2022-11-30T09:04:59.306Z,9.50
2022-11-30T09:07:27.359Z,7.63
2022-11-30T09:09:55.815Z,9.37
2022-11-30T09:12:23.795Z,8.20
2022-11-30T09:14:57.905Z,6.20
2022-11-30T09:17:26.717Z,8.67
2022-11-30T09:19:56.003Z,8.00
2022-11-30T09:22:24.096Z,7.50
2022-11-30T09:24:52.104Z,7.80
2022-11-30T09:27:20.057Z,7.10
2022-11-30T09:29:48.002Z,7.57
2022-11-30T09:32:17.437Z,7.23
2022-11-30T09:34:46.000Z,7.20
2022-11-30T09:37:14.450Z,8.47
2022-11-30T09:39:42.629Z,6.73
2022-11-30T09:42:39.611Z,5.87
2022-11-30T09:45:12.925Z,6.43
2022-11-30T09:48:00.386Z,6.97
2022-11-30T09:50:31.246Z,8.07
2022-11-30T09:53:03.421Z,6.40
2022-11-30T09:55:33.834Z,6.20
2022-11-30T09:58:03.692Z,6.10
2022-11-30T10:00:31.973Z,6.43
2022-11-30T10:03:05.763Z,6.80
2022-11-30T10:05:44.087Z,7.13
2022-11-30T10:08:25.671Z,7.00
2022-11-30T10:11:08.567Z,5.63
2022-11-30T10:13:50.815Z,6.10
2022-11-30T10:16:26.637Z,6.00
2022-11-30T10:19:01.757Z,6.67
2022-11-30T10:21:48.737Z,7.00
2022-11-30T10:24:31.408Z,7.37
2022-11-30T10:27:03.686Z,7.30
2022-11-30T10:29:35.913Z,6.37
2022-11-30T10:32:14.844Z,5.00
2022-11-30T10:34:47.301Z,6.80
2022-11-30T10:37:20.754Z,7.97
2022-11-30T10:39:59.607Z,6.70
2022-11-30T10:42:32.506Z,7.63
2022-11-30T10:45:03.451Z,5.60
2022-11-30T10:47:36.967Z,5.80
2022-11-30T10:50:08.164Z,5.77
2022-11-30T10:52:42.924Z,5.60
2022-11-30T10:55:16.331Z,5.93
2022-11-30T10:57:45.048Z,6.50
2022-11-30T11:00:16.642Z,6.73
2022-11-30T11:02:46.835Z,6.13
2022-11-30T11:05:22.476Z,6.20
2022-11-30T11:08:02.697Z,8.40
2022-11-30T11:10:36.397Z,7.30
2022-11-30T11:13:05.468Z,8.73
2022-11-30T11:15:34.912Z,7.20
2022-11-30T11:18:31.064Z,6.87
2022-11-30T11:21:07.184Z,6.57
2022-11-30T11:23:38.790Z,7.33
2022-11-30T11:26:07.811Z,6.90
2022-11-30T11:28:38.144Z,5.10
2022-11-30T11:31:19.112Z,5.80
2022-11-30T11:33:55.166Z,7.70
2022-11-30T11:36:29.293Z,8.27
2022-11-30T11:38:57.713Z,6.50
2022-11-30T11:41:29.038Z,8.47
2022-11-30T11:44:02.030Z,5.13
2022-11-30T11:46:32.006Z,6.83
2022-11-30T11:49:02.850Z,8.00
2022-11-30T11:51:34.047Z,5.97
2022-11-30T11:54:08.027Z,6.47
2022-11-30T11:56:37.881Z,7.37
2022-11-30T11:59:15.533Z,7.33
2022-11-30T12:02:00.136Z,5.47
2022-11-30T12:04:49.357Z,6.97
2022-11-30T12:07:26.634Z,7.37
2022-11-30T12:10:50.058Z,7.13
2022-11-30T12:13:14.162Z,5.17
2022-11-30T12:16:01.514Z,5.70
2022-11-30T12:18:37.356Z,6.60
2022-11-30T12:21:12.045Z,6.57
2022-11-30T12:23:58.723Z,5.07
2022-11-30T12:26:33.367Z,8.87
2022-11-30T12:29:19.568Z,9.07
2022-11-30T12:32:12.666Z,8.30
2022-11-30T12:34:55.386Z,5.77
2022-11-30T12:37:31.399Z,6.13
2022-11-30T12:40:09.225Z,8.57
2022-11-30T12:42:46.355Z,7.47
2022-11-30T12:45:20.365Z,7.87
2022-11-30T12:47:58.065Z,7.83
2022-11-30T12:50:41.101Z,8.10
2022-11-30T12:53:19.237Z,5.73
2022-11-30T12:55:58.586Z,6.20
2022-11-30T12:58:35.017Z,6.10
2022-11-30T13:01:14.033Z,6.40
2022-11-30T13:03:54.644Z,5.27
2022-11-30T13:06:27.998Z,6.50
2022-11-30T13:09:02.110Z,5.17
2022-11-30T13:11:37.607Z,7.03
2022-11-30T13:14:12.691Z,5.10
2022-11-30T13:16:42.009Z,5.83
2022-11-30T13:19:24.559Z,5.33
2022-11-30T13:21:56.667Z,7.27
2022-11-30T13:24:29.387Z,5.53
2022-11-30T13:27:02.796Z,6.50
2022-11-30T13:29:55.816Z,6.27
2022-11-30T13:35:46.055Z,5.83
2022-11-30T13:38:36.464Z,4.57
2022-11-30T13:41:08.538Z,7.73
2022-11-30T13:43:41.944Z,5.60
2022-11-30T13:46:16.586Z,5.00
2022-11-30T13:48:45.850Z,5.70
2022-11-30T13:51:18.217Z,5.37
2022-11-30T13:53:46.148Z,7.03
2022-11-30T13:56:35.278Z,9.30
2022-11-30T13:59:40.740Z,4.97
2022-11-30T14:02:58.183Z,8.00
2022-11-30T14:05:41.750Z,5.70
2022-11-30T14:08:18.980Z,4.57
2022-11-30T14:10:48.236Z,4.80
2022-11-30T14:13:32.935Z,5.80
2022-11-30T14:16:03.857Z,6.70
2022-11-30T14:18:42.317Z,7.00
2022-11-30T14:21:20.719Z,6.67
2022-11-30T14:23:55.324Z,6.77
2022-11-30T14:26:28.614Z,8.13
2022-11-30T14:29:03.564Z,6.00
2022-11-30T14:31:37.773Z,5.40
2022-11-30T14:34:11.818Z,5.00
2022-11-30T14:36:44.531Z,7.27
2022-11-30T14:39:26.748Z,7.50
2022-11-30T14:41:55.186Z,6.73
2022-11-30T14:44:23.137Z,6.60
2022-11-30T14:46:52.541Z,5.70
2022-11-30T14:49:22.579Z,8.20
2022-11-30T14:51:53.088Z,5.17
2022-11-30T14:54:37.660Z,6.43
2022-11-30T14:57:14.684Z,6.27
2022-11-30T14:59:48.590Z,4.90
2022-11-30T15:02:29.300Z,6.47
2022-11-30T15:04:58.833Z,7.53
2022-11-30T15:07:27.449Z,6.77
2022-11-30T15:10:03.545Z,6.23
2022-11-30T15:12:31.926Z,6.37
2022-11-30T15:15:17.773Z,5.77
2022-11-30T15:17:51.596Z,9.63
2022-11-30T15:20:25.906Z,6.90
2022-11-30T15:22:55.243Z,4.30
2022-11-30T15:25:26.197Z,5.50
2022-11-30T15:27:54.414Z,6.50
2022-11-30T15:30:22.570Z,5.57
2022-11-30T15:32:53.419Z,5.27
2022-11-30T15:35:24.545Z,4.53
2022-11-30T15:37:53.290Z,6.80
2022-11-30T15:40:31.823Z,6.60
2022-11-30T15:43:01.180Z,5.57
2022-11-30T15:45:31.270Z,5.93
2022-11-30T15:48:01.748Z,4.40
2022-11-30T15:50:39.265Z,8.40
2022-11-30T15:53:32.015Z,5.10
2022-11-30T15:56:03.392Z,6.40
2022-11-30T15:58:36.921Z,6.30
2022-11-30T16:01:11.562Z,6.57
2022-11-30T16:04:00.778Z,6.03
2022-11-30T16:06:30.168Z,6.83
2022-11-30T16:08:59.542Z,7.17
2022-11-30T16:11:28.190Z,6.50
2022-11-30T16:13:56.208Z,8.23
2022-11-30T16:16:29.308Z,7.53
2022-11-30T16:18:57.276Z,7.20
2022-11-30T16:21:26.707Z,8.27
2022-11-30T16:23:54.747Z,9.90
2022-11-30T16:26:43.668Z,9.00
2022-11-30T16:29:10.900Z,7.40
2022-11-30T16:31:38.898Z,9.07
2022-11-30T16:34:08.681Z,9.00
2022-11-30T16:36:39.462Z,6.53
2022-11-30T16:39:11.811Z,6.40
2022-11-30T16:41:39.810Z,8.80
2022-11-30T16:44:14.277Z,7.27
2022-11-30T16:46:42.352Z,7.77
2022-11-30T16:49:10.328Z,6.73
2022-11-30T16:51:41.842Z,5.33
2022-11-30T16:54:12.383Z,7.37
2022-11-30T16:56:40.353Z,6.03
2022-11-30T16:59:13.533Z,5.53
2022-11-30T17:01:46.623Z,5.70
2022-11-30T17:04:22.780Z,7.90
2022-11-30T17:06:57.202Z,6.27
2022-11-30T17:09:29.821Z,5.77
2022-11-30T17:11:57.863Z,7.07
2022-11-30T17:14:25.823Z,6.30
2022-11-30T17:16:53.917Z,7.20
2022-11-30T17:19:22.970Z,6.80
2022-11-30T17:21:52.409Z,6.97
2022-11-30T17:24:20.435Z,8.17
2022-11-30T17:26:48.489Z,6.50
2022-11-30T17:29:16.443Z,7.60
2022-11-30T17:31:44.415Z,6.87
2022-11-30T17:34:12.388Z,6.03
2022-11-30T17:36:40.385Z,6.83
2022-11-30T17:39:10.158Z,6.50
2022-11-30T17:41:38.152Z,7.60
2022-11-30T17:44:06.163Z,8.00
2022-11-30T17:46:34.126Z,7.50
2022-11-30T17:49:02.132Z,8.00
2022-11-30T17:51:30.759Z,8.40
2022-11-30T17:53:59.005Z,8.93
2022-11-30T17:56:28.520Z,8.03
2022-11-30T17:58:56.577Z,8.90
2022-11-30T18:01:26.147Z,7.70
2022-11-30T18:03:54.883Z,8.63
2022-11-30T18:06:22.889Z,8.00
2022-11-30T18:08:50.996Z,6.77
2022-11-30T18:11:20.847Z,8.23
2022-11-30T18:13:51.691Z,6.13
2022-11-30T18:16:21.553Z,7.50
2022-11-30T18:18:49.618Z,7.50
2022-11-30T18:21:19.942Z,6.80
2022-11-30T18:23:48.900Z,7.47
2022-11-30T18:26:19.258Z,5.70
2022-11-30T18:28:53.467Z,6.73
2022-11-30T18:31:21.758Z,6.10
2022-11-30T18:33:49.909Z,7.30
2022-11-30T18:36:17.924Z,8.60
2022-11-30T18:38:45.893Z,7.13
2022-11-30T18:41:13.896Z,7.60
2022-11-30T18:43:41.913Z,6.37
2022-11-30T18:46:12.793Z,6.40
2022-11-30T18:48:42.047Z,7.53
2022-11-30T18:51:12.560Z,7.10
2022-11-30T18:53:40.627Z,7.77
2022-11-30T18:56:10.323Z,5.97
2022-11-30T18:58:38.290Z,5.57
2022-11-30T19:01:11.700Z,4.87
2022-11-30T19:03:39.817Z,8.97
2022-11-30T19:06:09.817Z,6.60
2022-11-30T19:08:39.879Z,6.63
2022-11-30T19:11:09.986Z,7.63
2022-11-30T19:13:38.473Z,8.37
2022-11-30T19:16:08.525Z,5.13
2022-11-30T19:18:38.619Z,6.37
2022-11-30T19:21:10.252Z,5.37
2022-11-30T19:23:38.903Z,4.53
2022-11-30T19:26:07.647Z,6.63
2022-11-30T19:28:37.548Z,5.57
2022-11-30T19:31:09.543Z,5.80
2022-11-30T19:33:40.793Z,22.67
2022-11-30T19:36:10.670Z,14.73
2022-11-30T19:38:39.887Z,18.40
2022-11-30T19:41:09.031Z,24.97
2022-11-30T19:43:38.205Z,17.30
2022-11-30T19:46:07.948Z,11.23
2022-11-30T19:48:37.424Z,9.90
2022-11-30T19:51:12.113Z,10.57
2022-11-30T19:53:42.960Z,6.53
2022-11-30T19:56:14.782Z,5.20
2022-11-30T19:58:43.993Z,6.27
2022-11-30T20:01:15.008Z,5.90
2022-11-30T20:03:45.188Z,5.80
2022-11-30T20:06:16.066Z,7.20
2022-11-30T20:08:45.399Z,6.03
2022-11-30T20:11:16.413Z,6.47
2022-11-30T20:13:46.831Z,8.20
2022-11-30T20:16:17.472Z,5.83
2022-11-30T20:18:47.328Z,6.07
2022-11-30T20:21:19.167Z,3.80
2022-11-30T20:23:49.366Z,6.77
2022-11-30T20:26:19.724Z,6.37
2022-11-30T20:28:51.564Z,6.80
2022-11-30T20:31:21.754Z,6.87
2022-11-30T20:33:51.530Z,6.60
2022-11-30T20:36:23.056Z,6.20
2022-11-30T20:38:52.743Z,5.67
2022-11-30T20:41:23.136Z,5.33
2022-11-30T20:43:52.839Z,7.30
2022-11-30T20:46:23.291Z,6.17
2022-11-30T20:48:53.063Z,5.23
2022-11-30T20:51:32.753Z,7.10
2022-11-30T20:54:02.862Z,5.67
2022-11-30T20:56:32.368Z,4.20
2022-11-30T20:59:03.585Z,5.57
2022-11-30T21:01:32.953Z,5.43
2022-11-30T21:04:02.380Z,6.47
2022-11-30T21:06:32.204Z,7.13
2022-11-30T21:09:00.750Z,6.03
2022-11-30T21:11:29.805Z,6.83
2022-11-30T21:13:59.033Z,7.60
2022-11-30T21:16:29.520Z,6.60
2022-11-30T21:18:58.686Z,8.07
2022-11-30T21:21:27.786Z,6.50
2022-11-30T21:23:58.946Z,4.50
2022-11-30T21:26:28.049Z,7.00
2022-11-30T21:28:57.068Z,6.33
2022-11-30T21:31:25.674Z,7.83
2022-11-30T21:33:54.155Z,6.53
2022-11-30T21:36:23.343Z,8.13
2022-11-30T21:38:58.312Z,6.80
2022-11-30T21:41:33.937Z,6.20
2022-11-30T21:44:02.221Z,9.73
2022-11-30T21:46:30.761Z,7.23
2022-11-30T21:48:59.178Z,7.70
2022-11-30T21:51:28.475Z,5.90
2022-11-30T21:53:58.140Z,7.00
2022-11-30T21:56:28.663Z,6.73
2022-11-30T21:58:59.611Z,5.83
2022-11-30T22:01:30.092Z,5.87
2022-11-30T22:04:00.157Z,5.50
2022-11-30T22:06:30.538Z,8.03
2022-11-30T22:09:03.075Z,9.10
2022-11-30T22:11:33.243Z,6.40
2022-11-30T22:14:04.106Z,7.13
2022-11-30T22:16:36.382Z,5.87
2022-11-30T22:19:07.231Z,7.33
2022-11-30T22:21:36.938Z,5.80
2022-11-30T22:24:07.205Z,5.03
2022-11-30T22:26:37.566Z,5.40
2022-11-30T22:29:09.613Z,6.07
2022-11-30T22:31:39.531Z,5.07
2022-11-30T22:34:09.579Z,7.47
2022-11-30T22:36:39.843Z,9.17
2022-11-30T22:39:10.251Z,6.10
2022-11-30T22:41:39.997Z,8.03
2022-11-30T22:44:11.101Z,7.07
2022-11-30T22:46:40.346Z,6.10
2022-11-30T22:49:10.429Z,6.20
2022-11-30T22:51:39.820Z,7.80
2022-11-30T22:54:09.417Z,5.73
2022-11-30T22:56:41.306Z,6.57
2022-11-30T22:59:13.506Z,6.13
2022-11-30T23:01:45.482Z,5.50
2022-11-30T23:04:15.781Z,5.70
2022-11-30T23:06:45.809Z,6.13
2022-11-30T23:09:16.163Z,8.20
2022-11-30T23:11:45.657Z,7.20
2022-11-30T23:14:16.577Z,5.80
2022-11-30T23:16:46.151Z,5.63
2022-11-30T23:19:15.886Z,6.80
2022-11-30T23:21:45.920Z,7.00
2022-11-30T23:24:16.177Z,6.60
2022-11-30T23:26:46.046Z,9.47
2022-11-30T23:29:17.222Z,7.60
2022-11-30T23:31:47.320Z,5.90
2022-11-30T23:34:17.747Z,6.63
2022-11-30T23:36:47.243Z,7.13
2022-11-30T23:39:17.947Z,5.80
2022-11-30T23:41:47.418Z,5.30
2022-11-30T23:44:18.132Z,7.33
2022-11-30T23:46:47.432Z,6.10
2022-11-30T23:49:16.719Z,5.60
2022-11-30T23:51:45.945Z,5.07
2022-11-30T23:54:15.176Z,10.83
2022-11-30T23:56:44.519Z,6.63
2022-11-30T23:59:13.725Z,4.73
